Terminal Aerodrome Forecast
Issued by NWS Albuquerque, NM

Home | Current Version | Previous Version | Text Only | Print | Product List | Glossary On
Versions: 1 2 3 4 5 6 7 8 9 10 11 12
454
FTUS45 KABQ 131138
TAFABQ
TAF
KABQ 131138Z 1312/1412 VRB05KT P6SM SKC
     FM132100 24006KT P6SM SKC
     FM140200 35006KT P6SM FEW250=

USA.gov is the U.S. government's official web portal to all federal, state and local government web resources and services.